createdAt,value
2018-04-23T00:00:47.372Z,17.97
2018-04-23T00:01:47.278Z,18.03
2018-04-23T00:02:47.174Z,17.95
2018-04-23T00:03:47.084Z,17.95
2018-04-23T00:04:46.992Z,17.92
2018-04-23T00:05:46.902Z,17.90
2018-04-23T00:06:46.799Z,18.00
2018-04-23T00:07:46.711Z,17.95
2018-04-23T00:08:46.618Z,17.94
2018-04-23T00:09:46.527Z,17.97
2018-04-23T00:10:46.423Z,17.89
2018-04-23T00:11:46.336Z,17.92
2018-04-23T00:12:46.244Z,17.92
2018-04-23T00:13:46.153Z,17.90
2018-04-23T00:14:46.048Z,17.95
2018-04-23T00:15:45.956Z,17.90
2018-04-23T00:16:45.867Z,17.97
2018-04-23T00:17:45.787Z,17.97
2018-04-23T00:18:45.671Z,17.86
2018-04-23T00:19:45.585Z,17.89
2018-04-23T00:20:45.489Z,17.82
2018-04-23T00:21:45.400Z,17.85
2018-04-23T00:22:45.297Z,17.82
2018-04-23T00:23:45.205Z,17.78
2018-04-23T00:24:45.115Z,17.70
2018-04-23T00:25:45.024Z,17.67
2018-04-23T00:26:44.920Z,17.72
2018-04-23T00:27:44.831Z,17.60
2018-04-23T00:28:44.738Z,17.65
2018-04-23T00:29:44.648Z,17.59
2018-04-23T00:30:44.545Z,17.56
2018-04-23T00:31:44.457Z,17.46
2018-04-23T00:32:44.364Z,17.51
2018-04-23T00:33:44.273Z,17.46
2018-04-23T00:34:44.173Z,17.48
2018-04-23T00:35:44.078Z,17.48
2018-04-23T00:36:43.991Z,17.48
2018-04-23T00:37:43.896Z,17.51
2018-04-23T00:38:43.796Z,17.46
2018-04-23T00:39:43.702Z,17.51
2018-04-23T00:40:43.611Z,17.41
2018-04-23T00:41:43.523Z,17.33
2018-04-23T00:42:43.420Z,17.30
2018-04-23T00:43:43.327Z,17.36
2018-04-23T00:44:43.250Z,17.29
2018-04-23T00:45:43.145Z,17.34
2018-04-23T00:46:43.042Z,17.23
2018-04-23T00:47:42.949Z,17.29
2018-04-23T00:48:42.861Z,17.29
2018-04-23T00:49:42.769Z,17.29
2018-04-23T00:50:42.666Z,17.34
2018-04-23T00:51:42.575Z,17.36
2018-04-23T00:52:42.485Z,17.39
2018-04-23T00:53:42.394Z,17.42
2018-04-23T00:54:42.291Z,17.45
2018-04-23T00:55:42.199Z,17.49
2018-04-23T00:56:42.114Z,17.49
2018-04-23T00:57:42.017Z,17.46
2018-04-23T00:58:41.914Z,17.46
2018-04-23T00:59:41.825Z,17.51
2018-04-23T01:00:41.736Z,17.65
2018-04-23T01:01:41.642Z,17.67
2018-04-23T01:02:41.539Z,17.64
2018-04-23T01:03:41.449Z,17.60
2018-04-23T01:04:41.361Z,17.70
2018-04-23T01:05:41.279Z,17.64
2018-04-23T01:06:41.163Z,17.63
2018-04-23T01:07:41.073Z,17.65
2018-04-23T01:08:40.980Z,17.49
2018-04-23T01:09:40.890Z,17.56
2018-04-23T01:10:40.787Z,17.54
2018-04-23T01:11:40.696Z,17.56
2018-04-23T01:12:40.607Z,17.54
2018-04-23T01:13:40.513Z,17.44
2018-04-23T01:14:40.412Z,17.46
2018-04-23T01:15:40.320Z,17.42
2018-04-23T01:16:40.229Z,17.41
2018-04-23T01:17:40.140Z,17.39
2018-04-23T01:18:40.035Z,17.36
2018-04-23T01:19:39.943Z,17.36
2018-04-23T01:20:39.854Z,17.36
2018-04-23T01:21:39.763Z,17.39
2018-04-23T01:22:39.661Z,17.42
2018-04-23T01:23:39.569Z,17.41
2018-04-23T01:24:39.478Z,17.39
2018-04-23T01:25:39.388Z,17.36
2018-04-23T01:26:39.283Z,17.34
2018-04-23T01:27:39.193Z,17.41
2018-04-23T01:28:39.105Z,17.39
2018-04-23T01:29:39.011Z,17.34
2018-04-23T01:30:38.908Z,17.36
2018-04-23T01:31:38.817Z,17.26
2018-04-23T01:32:38.728Z,17.26
2018-04-23T01:33:38.639Z,17.22
2018-04-23T01:34:38.834Z,17.20
2018-04-23T01:35:38.441Z,17.12
2018-04-23T01:36:38.354Z,17.08
2018-04-23T01:37:38.262Z,17.08
2018-04-23T01:38:38.157Z,16.99
2018-04-23T01:39:38.066Z,16.94
2018-04-23T01:40:37.975Z,16.84
2018-04-23T01:41:37.885Z,16.72
2018-04-23T01:42:37.781Z,16.71
2018-04-23T01:43:37.689Z,16.72
2018-04-23T01:44:37.850Z,16.71
2018-04-23T01:45:37.496Z,16.64
2018-04-23T01:46:37.404Z,16.66
2018-04-23T01:47:37.314Z,16.66
2018-04-23T01:48:37.223Z,16.54
2018-04-23T01:49:37.120Z,16.61
2018-04-23T01:50:37.031Z,16.60
2018-04-23T01:51:36.937Z,16.54
2018-04-23T01:52:36.836Z,16.57
2018-04-23T01:53:36.747Z,16.58
2018-04-23T01:54:36.646Z,16.53
2018-04-23T01:55:36.563Z,16.50
2018-04-23T01:56:36.461Z,16.35
2018-04-23T01:57:36.368Z,16.36
2018-04-23T01:58:36.278Z,16.32
2018-04-23T01:59:36.174Z,16.35
2018-04-23T02:00:36.084Z,16.33
2018-04-23T02:01:35.995Z,16.31
2018-04-23T02:02:35.912Z,16.28
2018-04-23T02:03:35.798Z,16.26
2018-04-23T02:04:35.708Z,16.13
2018-04-23T02:05:35.617Z,16.17
2018-04-23T02:06:35.513Z,16.09
2018-04-23T02:07:35.423Z,16.16
2018-04-23T02:08:35.331Z,16.15
2018-04-23T02:09:35.247Z,16.16
2018-04-23T02:10:35.140Z,16.08
2018-04-23T02:11:35.047Z,16.10
2018-04-23T02:12:34.956Z,16.01
2018-04-23T02:13:34.853Z,16.08
2018-04-23T02:14:34.763Z,16.08
2018-04-23T02:15:34.673Z,16.08
2018-04-23T02:16:34.569Z,16.08
2018-04-23T02:17:34.477Z,16.10
2018-04-23T02:18:34.390Z,16.13
2018-04-23T02:19:34.294Z,16.12
2018-04-23T02:20:34.193Z,16.26
2018-04-23T02:21:34.102Z,16.12
2018-04-23T02:22:34.023Z,16.13
2018-04-23T02:23:33.907Z,16.08
2018-04-23T02:24:33.817Z,16.09
2018-04-23T02:25:33.725Z,16.09
2018-04-23T02:26:33.622Z,16.09
2018-04-23T02:27:33.533Z,16.00
2018-04-23T02:28:33.441Z,16.02
2018-04-23T02:29:33.338Z,16.05
2018-04-23T02:30:33.247Z,15.97
2018-04-23T02:31:33.161Z,15.91
2018-04-23T02:32:33.064Z,15.90
2018-04-23T02:33:32.961Z,15.83
2018-04-23T02:34:32.893Z,15.86
2018-04-23T02:35:32.779Z,15.79
2018-04-23T02:36:32.678Z,15.79
2018-04-23T02:37:32.588Z,15.80
2018-04-23T02:38:32.495Z,15.76
2018-04-23T02:39:32.392Z,15.77
2018-04-23T02:40:32.301Z,15.82
2018-04-23T02:41:32.209Z,15.68
2018-04-23T02:42:32.107Z,15.68
2018-04-23T02:43:32.016Z,15.65
2018-04-23T02:44:31.925Z,15.64
2018-04-23T02:45:31.824Z,15.61
2018-04-23T02:46:31.730Z,15.67
2018-04-23T02:47:31.641Z,15.62
2018-04-23T02:48:31.538Z,15.52
2018-04-23T02:49:31.458Z,15.51
2018-04-23T02:50:31.359Z,15.46
2018-04-23T02:51:31.253Z,15.49
2018-04-23T02:52:31.161Z,15.49
2018-04-23T02:53:31.077Z,15.51
2018-04-23T02:54:30.968Z,15.44
2018-04-23T02:55:30.875Z,15.40
2018-04-23T02:56:30.786Z,15.24
2018-04-23T02:57:30.694Z,15.37
2018-04-23T02:58:30.590Z,15.33
2018-04-23T02:59:30.503Z,15.43
2018-04-23T03:00:30.409Z,15.35
2018-04-23T03:01:30.307Z,15.28
2018-04-23T03:02:30.215Z,15.29
2018-04-23T03:03:30.112Z,15.29
2018-04-23T03:04:30.021Z,15.31
2018-04-23T03:05:29.929Z,15.31
2018-04-23T03:06:29.828Z,15.25
2018-04-23T03:07:29.736Z,15.15
2018-04-23T03:08:29.649Z,15.18
2018-04-23T03:09:29.793Z,15.15
2018-04-23T03:10:29.451Z,15.03
2018-04-23T03:11:29.360Z,15.09
2018-04-23T03:12:29.257Z,15.14
2018-04-23T03:13:29.161Z,15.07
2018-04-23T03:14:29.076Z,15.04
2018-04-23T03:15:28.977Z,15.04
2018-04-23T03:16:28.880Z,15.04
2018-04-23T03:17:28.780Z,15.04
2018-04-23T03:18:28.688Z,15.00
2018-04-23T03:19:28.596Z,14.99
2018-04-23T03:20:28.508Z,15.00
2018-04-23T03:21:28.403Z,14.89
2018-04-23T03:22:28.311Z,14.89
2018-04-23T03:23:28.208Z,14.94
2018-04-23T03:24:28.121Z,14.92
2018-04-23T03:25:28.027Z,14.86
2018-04-23T03:26:27.923Z,14.91
2018-04-23T03:27:27.833Z,14.86
2018-04-23T03:28:27.730Z,14.89
2018-04-23T03:29:27.639Z,14.91
2018-04-23T03:30:27.548Z,14.85
2018-04-23T03:31:27.444Z,14.78
2018-04-23T03:32:27.353Z,14.81
2018-04-23T03:33:27.252Z,14.82
2018-04-23T03:34:27.160Z,14.72
2018-04-23T03:35:27.068Z,14.72
2018-04-23T03:36:26.965Z,14.69
2018-04-23T03:37:26.878Z,14.62
2018-04-23T03:38:26.783Z,14.60
2018-04-23T03:39:26.679Z,14.59
2018-04-23T03:40:26.590Z,14.55
2018-04-23T03:41:26.487Z,14.55
2018-04-23T03:42:26.395Z,14.44
2018-04-23T03:43:26.304Z,14.47
2018-04-23T03:44:26.271Z,14.47
2018-04-23T03:45:26.111Z,14.47
2018-04-23T03:46:26.021Z,14.40
2018-04-23T03:47:25.917Z,14.44
2018-04-23T03:48:25.825Z,14.36
2018-04-23T03:49:25.747Z,14.33
2018-04-23T03:50:25.633Z,14.35
2018-04-23T03:51:25.529Z,14.41
2018-04-23T03:52:25.436Z,14.43
2018-04-23T03:53:25.355Z,14.40
2018-04-23T03:54:25.246Z,14.40
2018-04-23T03:55:25.152Z,14.43
2018-04-23T03:56:25.049Z,14.37
2018-04-23T03:57:24.959Z,14.43
2018-04-23T03:58:24.855Z,14.40
2018-04-23T03:59:24.763Z,14.43
2018-04-23T04:00:24.673Z,14.43
2018-04-23T04:01:24.597Z,14.47
2018-04-23T04:02:24.480Z,14.55
2018-04-23T04:03:24.377Z,14.53
2018-04-23T04:04:24.285Z,14.58
2018-04-23T04:05:24.194Z,14.62
2018-04-23T04:06:24.090Z,14.66
2018-04-23T04:07:24.001Z,14.72
2018-04-23T04:08:23.897Z,14.73
2018-04-23T04:09:24.162Z,14.79
2018-04-23T04:10:23.704Z,14.77
2018-04-23T04:11:23.612Z,14.79
2018-04-23T04:12:23.523Z,14.72
2018-04-23T04:13:23.417Z,14.77
2018-04-23T04:14:23.327Z,14.78
2018-04-23T04:15:23.224Z,14.73
2018-04-23T04:16:23.145Z,14.72
2018-04-23T04:17:23.042Z,14.72
2018-04-23T04:18:22.938Z,14.78
2018-04-23T04:19:23.647Z,14.79
2018-04-23T04:20:22.748Z,14.81
2018-04-23T04:21:22.654Z,14.85
2018-04-23T04:22:22.551Z,14.86
2018-04-23T04:23:22.461Z,14.91
2018-04-23T04:24:22.370Z,14.86
2018-04-23T04:25:22.266Z,14.94
2018-04-23T04:26:22.173Z,14.88
2018-04-23T04:27:22.073Z,15.06
2018-04-23T04:28:21.981Z,15.06
2018-04-23T04:29:21.889Z,15.00
2018-04-23T04:30:21.799Z,15.07
2018-04-23T04:31:21.700Z,15.17
2018-04-23T04:32:21.592Z,15.21
2018-04-23T04:33:21.506Z,15.27
2018-04-23T04:34:21.411Z,15.43
2018-04-23T04:35:21.307Z,15.43
2018-04-23T04:36:21.216Z,15.39
2018-04-23T04:37:21.113Z,15.43
2018-04-23T04:38:21.076Z,15.49
2018-04-23T04:39:21.231Z,15.64
2018-04-23T04:40:20.827Z,15.83
2018-04-23T04:41:20.738Z,16.01
2018-04-23T04:42:20.646Z,16.21
2018-04-23T04:43:20.545Z,16.35
2018-04-23T04:44:20.453Z,16.49
2018-04-23T04:45:20.361Z,16.61
2018-04-23T04:46:20.258Z,16.64
2018-04-23T04:47:20.170Z,16.57
2018-04-23T04:48:20.065Z,16.75
2018-04-23T04:49:19.973Z,16.93
2018-04-23T04:50:19.884Z,17.20
2018-04-23T04:51:19.829Z,17.33
2018-04-23T04:52:19.688Z,17.52
2018-04-23T04:53:19.597Z,17.67
2018-04-23T04:54:19.506Z,17.90
2018-04-23T04:55:19.403Z,17.89
2018-04-23T04:56:19.316Z,17.94
2018-04-23T04:57:19.221Z,18.04
2018-04-23T04:58:19.119Z,18.15
2018-04-23T04:59:19.029Z,18.34
2018-04-23T05:00:18.942Z,18.47
2018-04-23T05:01:18.846Z,18.50
2018-04-23T05:02:18.743Z,18.73
2018-04-23T05:03:18.651Z,18.90
2018-04-23T05:04:18.564Z,19.09
2018-04-23T05:05:18.471Z,19.15
2018-04-23T05:06:18.379Z,19.26
2018-04-23T05:07:18.277Z,19.41
2018-04-23T05:08:18.184Z,19.69
2018-04-23T05:09:18.095Z,19.66
2018-04-23T05:10:18.016Z,19.86
2018-04-23T05:11:17.912Z,19.88
2018-04-23T05:12:17.822Z,20.06
2018-04-23T05:13:17.718Z,20.07
2018-04-23T05:14:17.628Z,20.14
2018-04-23T05:15:17.536Z,20.18
2018-04-23T05:16:17.447Z,20.18
2018-04-23T05:17:17.358Z,20.21
2018-04-23T05:18:17.265Z,20.10
2018-04-23T05:19:17.173Z,20.02
2018-04-23T05:20:17.071Z,19.89
2018-04-23T05:21:16.980Z,19.77
2018-04-23T05:22:16.888Z,19.91
2018-04-23T05:23:16.800Z,19.99
2018-04-23T05:24:16.707Z,20.03
2018-04-23T05:25:16.617Z,20.13
2018-04-23T05:26:16.525Z,20.21
2018-04-23T05:27:16.436Z,20.43
2018-04-23T05:28:16.343Z,20.65
2018-04-23T05:29:16.254Z,20.58
2018-04-23T05:30:16.162Z,20.21
2018-04-23T05:31:16.074Z,20.37
2018-04-23T05:32:15.981Z,20.31
2018-04-23T05:33:15.890Z,20.24
2018-04-23T05:34:15.798Z,20.32
2018-04-23T05:35:15.697Z,20.47
2018-04-23T05:36:15.607Z,20.63
2018-04-23T05:37:15.515Z,20.84
2018-04-23T05:38:15.426Z,20.95
2018-04-23T05:39:15.332Z,20.88
2018-04-23T05:40:15.243Z,20.59
2018-04-23T05:41:15.163Z,20.84
2018-04-23T05:42:15.060Z,20.75
2018-04-23T05:43:14.976Z,20.82
2018-04-23T05:44:14.909Z,20.88
2018-04-23T05:45:14.801Z,20.84
2018-04-23T05:46:14.697Z,20.78
2018-04-23T05:47:14.606Z,20.75
2018-04-23T05:48:14.515Z,20.51
2018-04-23T05:49:14.425Z,20.37
2018-04-23T05:50:14.334Z,20.25
2018-04-23T05:51:14.244Z,20.25
2018-04-23T05:52:14.164Z,20.21
2018-04-23T05:53:14.073Z,20.22
2018-04-23T05:54:13.982Z,20.25
2018-04-23T05:55:13.893Z,20.28
2018-04-23T05:56:13.800Z,20.14
2018-04-23T05:57:13.710Z,20.25
2018-04-23T05:58:13.619Z,20.24
2018-04-23T05:59:13.780Z,20.39
2018-04-23T06:00:13.438Z,20.55
2018-04-23T06:01:13.346Z,20.82
2018-04-23T06:02:13.255Z,21.00
2018-04-23T06:03:13.165Z,21.09
2018-04-23T06:04:13.078Z,21.54
2018-04-23T06:05:13.012Z,21.70
2018-04-23T06:06:12.892Z,21.58
2018-04-23T06:07:12.801Z,21.37
2018-04-23T06:08:12.710Z,20.99
2018-04-23T06:09:12.620Z,20.84
2018-04-23T06:10:12.528Z,20.69
2018-04-23T06:11:12.438Z,20.67
2018-04-23T06:12:12.346Z,20.52
2018-04-23T06:13:12.255Z,20.48
2018-04-23T06:14:12.165Z,20.43
2018-04-23T06:15:12.076Z,20.48
2018-04-23T06:16:11.983Z,20.40
2018-04-23T06:17:11.892Z,20.40
2018-04-23T06:18:11.802Z,20.24
2018-04-23T06:19:11.961Z,20.07
2018-04-23T06:20:11.619Z,19.95
2018-04-23T06:21:11.529Z,20.04
2018-04-23T06:22:11.439Z,19.92
2018-04-23T06:23:11.348Z,19.82
2018-04-23T06:24:11.256Z,19.81
2018-04-23T06:25:11.165Z,19.69
2018-04-23T06:26:11.079Z,19.48
2018-04-23T06:27:10.990Z,19.37
2018-04-23T06:28:10.896Z,19.36
2018-04-23T06:29:10.802Z,19.30
2018-04-23T06:30:10.710Z,19.21
2018-04-23T06:31:10.620Z,19.09
2018-04-23T06:32:10.532Z,19.14
2018-04-23T06:33:10.440Z,19.14
2018-04-23T06:34:10.349Z,19.08
2018-04-23T06:35:10.258Z,18.96
2018-04-23T06:36:10.166Z,18.98
2018-04-23T06:37:10.076Z,18.99
2018-04-23T06:38:09.984Z,18.83
2018-04-23T06:39:10.144Z,18.98
2018-04-23T06:40:09.803Z,18.93
2018-04-23T06:41:09.712Z,18.90
2018-04-23T06:42:09.620Z,18.90
2018-04-23T06:43:09.532Z,18.90
2018-04-23T06:44:09.439Z,18.90
2018-04-23T06:45:09.349Z,19.02
2018-04-23T06:46:09.291Z,19.02
2018-04-23T06:47:09.154Z,19.14
2018-04-23T06:48:09.065Z,19.16
2018-04-23T06:49:08.972Z,19.16
2018-04-23T06:50:08.884Z,19.30
2018-04-23T06:51:08.792Z,19.36
2018-04-23T06:52:08.701Z,19.40
2018-04-23T06:53:08.609Z,19.36
2018-04-23T06:54:08.521Z,19.37
2018-04-23T06:55:08.428Z,19.41
2018-04-23T06:56:08.328Z,19.39
2018-04-23T06:57:08.235Z,19.54
2018-04-23T06:58:08.143Z,19.49
2018-04-23T06:59:08.104Z,19.37
2018-04-23T07:00:07.962Z,19.41
2018-04-23T07:01:07.872Z,19.47
2018-04-23T07:02:07.781Z,19.45
2018-04-23T07:03:07.691Z,19.51
2018-04-23T07:04:07.852Z,19.39
2018-04-23T07:05:07.536Z,19.45
2018-04-23T07:06:07.418Z,19.52
2018-04-23T07:07:07.320Z,19.51
2018-04-23T07:08:07.226Z,19.74
2018-04-23T07:09:07.132Z,19.86
2018-04-23T07:10:07.044Z,19.89
2018-04-23T07:11:06.952Z,19.89
2018-04-23T07:12:06.870Z,19.88
2018-04-23T07:13:06.770Z,19.95
2018-04-23T07:14:06.684Z,19.91
2018-04-23T07:15:06.587Z,20.03
2018-04-23T07:16:06.496Z,20.13
2018-04-23T07:17:06.407Z,20.29
2018-04-23T07:18:06.316Z,20.37
2018-04-23T07:19:06.227Z,20.40
2018-04-23T07:20:06.133Z,20.44
2018-04-23T07:21:06.048Z,20.66
2018-04-23T07:22:05.939Z,20.74
2018-04-23T07:23:05.849Z,20.85
2018-04-23T07:24:05.813Z,21.00
2018-04-23T07:25:05.671Z,21.15
2018-04-23T07:26:05.576Z,21.64
2018-04-23T07:27:05.485Z,21.58
2018-04-23T07:28:05.394Z,21.46
2018-04-23T07:29:05.303Z,21.91
2018-04-23T07:30:05.212Z,22.00
2018-04-23T07:31:05.123Z,22.50
2018-04-23T07:32:05.031Z,23.02
2018-04-23T07:33:04.941Z,22.81
2018-04-23T07:34:04.850Z,22.30
2018-04-23T07:35:04.760Z,21.92
2018-04-23T07:36:04.669Z,21.40
2018-04-23T07:37:04.579Z,21.30
2018-04-23T07:38:04.487Z,21.21
2018-04-23T07:39:04.397Z,20.97
2018-04-23T07:40:04.307Z,21.06
2018-04-23T07:41:04.215Z,21.25
2018-04-23T07:42:04.125Z,21.36
2018-04-23T07:43:04.046Z,21.11
2018-04-23T07:44:03.955Z,20.96
2018-04-23T07:45:03.864Z,21.00
2018-04-23T07:46:03.774Z,21.25
2018-04-23T07:47:03.686Z,21.22
2018-04-23T07:48:03.593Z,21.50
2018-04-23T07:49:03.501Z,21.40
2018-04-23T07:50:03.412Z,21.51
2018-04-23T07:51:03.319Z,21.43
2018-04-23T07:52:03.229Z,21.46
2018-04-23T07:53:03.138Z,21.52
2018-04-23T07:54:03.048Z,21.52
2018-04-23T07:55:02.958Z,21.58
2018-04-23T07:56:02.865Z,21.64
2018-04-23T07:57:02.774Z,21.46
2018-04-23T07:58:02.685Z,21.45
2018-04-23T07:59:02.594Z,21.48
2018-04-23T08:00:02.523Z,21.54
2018-04-23T08:01:02.414Z,21.60
2018-04-23T08:02:02.321Z,21.52
2018-04-23T08:03:02.229Z,21.43
2018-04-23T08:04:02.140Z,21.50
2018-04-23T08:05:02.047Z,21.67
2018-04-23T08:06:01.958Z,21.69
2018-04-23T08:07:01.867Z,21.85
2018-04-23T08:08:01.779Z,21.89
2018-04-23T08:09:01.687Z,22.02
2018-04-23T08:10:01.595Z,22.04
2018-04-23T08:11:01.509Z,22.22
2018-04-23T08:12:01.423Z,22.45
2018-04-23T08:13:01.333Z,22.48
2018-04-23T08:14:01.242Z,22.80
2018-04-23T08:15:01.151Z,22.99
2018-04-23T08:16:01.060Z,23.05
2018-04-23T08:17:00.974Z,23.05
2018-04-23T08:18:00.891Z,23.48
2018-04-23T08:19:01.038Z,23.62
2018-04-23T08:20:00.696Z,23.76
2018-04-23T08:21:00.607Z,23.80
2018-04-23T08:22:00.515Z,23.81
2018-04-23T08:23:00.433Z,23.74
2018-04-23T08:24:00.333Z,23.95
2018-04-23T08:25:00.255Z,24.13
2018-04-23T08:26:00.166Z,23.93
2018-04-23T08:27:00.074Z,23.74
2018-04-23T08:27:59.983Z,23.71
2018-04-23T08:28:59.892Z,23.66
2018-04-23T08:29:59.801Z,23.77
2018-04-23T08:30:59.710Z,23.92
2018-04-23T08:31:59.662Z,23.93
2018-04-23T08:32:59.547Z,23.96
2018-04-23T08:33:59.450Z,23.93
2018-04-23T08:34:59.361Z,23.95
2018-04-23T08:35:59.270Z,23.86
2018-04-23T08:36:59.189Z,23.78
2018-04-23T08:37:59.101Z,23.87
2018-04-23T08:38:59.010Z,23.86
2018-04-23T08:39:58.919Z,23.73
2018-04-23T08:40:58.827Z,23.46
2018-04-23T08:41:58.737Z,23.66
2018-04-23T08:42:58.659Z,23.65
2018-04-23T08:43:58.609Z,23.61
2018-04-23T08:44:58.481Z,23.73
2018-04-23T08:45:58.391Z,23.86
2018-04-23T08:46:58.308Z,24.11
2018-04-23T08:47:58.219Z,23.80
2018-04-23T08:48:58.163Z,24.05
2018-04-23T08:49:58.039Z,24.06
2018-04-23T08:50:57.945Z,23.98
2018-04-23T08:51:57.867Z,23.65
2018-04-23T08:52:57.776Z,23.91
2018-04-23T08:53:57.685Z,23.78
2018-04-23T08:54:57.596Z,23.43
2018-04-23T08:55:57.552Z,23.51
2018-04-23T08:56:57.426Z,23.44
2018-04-23T08:57:57.336Z,23.55
2018-04-23T08:58:57.244Z,23.55
2018-04-23T08:59:57.200Z,23.51
2018-04-23T09:00:57.075Z,23.62
2018-04-23T09:01:56.988Z,23.51
2018-04-23T09:02:56.897Z,23.61
2018-04-23T09:03:56.802Z,23.36
2018-04-23T09:04:56.713Z,23.23
2018-04-23T09:05:56.634Z,22.96
2018-04-23T09:06:56.542Z,22.78
2018-04-23T09:07:56.457Z,23.03
2018-04-23T09:08:56.362Z,23.02
2018-04-23T09:09:56.271Z,23.06
2018-04-23T09:10:56.193Z,22.98
2018-04-23T09:11:56.105Z,22.81
2018-04-23T09:12:56.011Z,22.80
2018-04-23T09:13:55.919Z,22.51
2018-04-23T09:14:55.829Z,22.28
2018-04-23T09:15:55.739Z,22.36
2018-04-23T09:16:55.659Z,22.45
2018-04-23T09:17:55.600Z,22.15
2018-04-23T09:18:55.477Z,21.99
2018-04-23T09:19:55.387Z,22.10
2018-04-23T09:20:55.296Z,22.08
2018-04-23T09:21:55.206Z,22.26
2018-04-23T09:22:55.127Z,22.41
2018-04-23T09:23:55.036Z,22.48
2018-04-23T09:24:54.953Z,22.57
2018-04-23T09:25:54.856Z,22.70
2018-04-23T09:26:54.763Z,22.53
2018-04-23T09:27:54.672Z,22.54
2018-04-23T09:28:54.594Z,22.47
2018-04-23T09:29:54.503Z,22.18
2018-04-23T09:30:54.412Z,22.43
2018-04-23T09:31:54.324Z,22.41
2018-04-23T09:32:54.244Z,22.22
2018-04-23T09:33:54.144Z,21.89
2018-04-23T09:34:54.049Z,21.85
2018-04-23T09:35:53.971Z,21.85
2018-04-23T09:36:53.881Z,21.55
2018-04-23T09:37:53.788Z,21.50
2018-04-23T09:38:53.714Z,21.33
2018-04-23T09:39:53.608Z,21.07
2018-04-23T09:40:53.517Z,20.97
2018-04-23T09:41:53.425Z,20.88
2018-04-23T09:42:53.337Z,20.70
2018-04-23T09:43:53.256Z,20.58
2018-04-23T09:44:53.167Z,20.48
2018-04-23T09:45:53.076Z,20.37
2018-04-23T09:46:52.984Z,20.28
2018-04-23T09:47:52.894Z,20.24
2018-04-23T09:48:52.802Z,20.19
2018-04-23T09:49:52.712Z,20.21
2018-04-23T09:50:52.621Z,20.14
2018-04-23T09:51:52.534Z,20.13
2018-04-23T09:52:52.439Z,20.03
2018-04-23T09:53:52.350Z,19.89
2018-04-23T09:54:52.258Z,19.77
2018-04-23T09:55:52.168Z,19.91
2018-04-23T09:56:52.076Z,19.77
2018-04-23T09:57:51.986Z,19.86
2018-04-23T09:58:51.895Z,19.76
2018-04-23T09:59:51.806Z,19.67
2018-04-23T10:00:51.713Z,19.56
2018-04-23T10:01:51.623Z,19.47
2018-04-23T10:02:51.531Z,19.41
2018-04-23T10:03:51.441Z,19.21
2018-04-23T10:04:51.349Z,19.11
2018-04-23T10:05:51.260Z,19.15
2018-04-23T10:06:51.168Z,19.16
2018-04-23T10:07:51.078Z,19.18
2018-04-23T10:08:50.986Z,19.34
2018-04-23T10:09:50.897Z,19.33
2018-04-23T10:10:50.805Z,19.27
2018-04-23T10:11:50.714Z,19.41
2018-04-23T10:12:50.623Z,19.54
2018-04-23T10:13:50.532Z,19.49
2018-04-23T10:14:50.441Z,19.58
2018-04-23T10:15:50.353Z,19.52
2018-04-23T10:16:50.259Z,19.62
2018-04-23T10:17:50.158Z,19.55
2018-04-23T10:18:50.067Z,19.66
2018-04-23T10:19:49.976Z,19.76
2018-04-23T10:20:49.888Z,19.85
2018-04-23T10:21:49.799Z,19.99
2018-04-23T10:22:49.703Z,20.02
2018-04-23T10:23:49.615Z,20.07
2018-04-23T10:24:49.523Z,20.04
2018-04-23T10:25:49.430Z,20.10
2018-04-23T10:26:49.341Z,20.13
2018-04-23T10:27:49.249Z,20.16
2018-04-23T10:28:49.158Z,20.11
2018-04-23T10:29:49.067Z,20.06
2018-04-23T10:30:48.977Z,20.13
2018-04-23T10:31:48.886Z,20.11
2018-04-23T10:32:48.795Z,20.13
2018-04-23T10:33:48.718Z,20.11
2018-04-23T10:34:48.614Z,20.10
2018-04-23T10:35:48.522Z,19.89
2018-04-23T10:36:48.420Z,20.04
2018-04-23T10:37:48.330Z,19.99
2018-04-23T10:38:48.237Z,20.02
2018-04-23T10:39:48.147Z,19.96
2018-04-23T10:40:48.056Z,20.03
2018-04-23T10:41:47.965Z,20.09
2018-04-23T10:42:47.875Z,20.16
2018-04-23T10:43:47.784Z,20.14
2018-04-23T10:44:47.696Z,20.26
2018-04-23T10:45:47.602Z,20.26
2018-04-23T10:46:47.511Z,20.26
2018-04-23T10:47:47.421Z,20.28
2018-04-23T10:48:47.329Z,20.40
2018-04-23T10:49:47.242Z,20.52
2018-04-23T10:50:47.148Z,20.75
2018-04-23T10:51:47.047Z,20.88
2018-04-23T10:52:46.955Z,20.99
2018-04-23T10:53:46.862Z,21.17
2018-04-23T10:54:46.772Z,21.24
2018-04-23T10:55:46.684Z,21.36
2018-04-23T10:56:46.596Z,21.43
2018-04-23T10:57:46.513Z,21.45
2018-04-23T10:58:46.411Z,21.57
2018-04-23T10:59:46.318Z,21.60
2018-04-23T11:00:46.229Z,21.67
2018-04-23T11:01:46.136Z,21.93
2018-04-23T11:02:46.045Z,22.38
2018-04-23T11:03:45.954Z,22.51
2018-04-23T11:04:45.865Z,22.93
2018-04-23T11:05:45.773Z,22.98
2018-04-23T11:06:45.683Z,23.02
2018-04-23T11:07:45.591Z,23.08
2018-04-23T11:08:45.502Z,22.55
2018-04-23T11:09:45.424Z,22.57
2018-04-23T11:10:45.324Z,22.81
2018-04-23T11:11:45.242Z,22.91
2018-04-23T11:12:45.149Z,23.23
2018-04-23T11:13:45.060Z,23.25
2018-04-23T11:14:44.968Z,23.09
2018-04-23T11:15:44.879Z,23.23
2018-04-23T11:16:44.786Z,23.20
2018-04-23T11:17:44.696Z,23.44
2018-04-23T11:18:44.605Z,23.41
2018-04-23T11:19:44.517Z,23.50
2018-04-23T11:20:44.436Z,23.62
2018-04-23T11:21:44.345Z,23.77
2018-04-23T11:22:44.261Z,23.54
2018-04-23T11:23:44.165Z,22.80
2018-04-23T11:24:44.100Z,22.55
2018-04-23T11:25:43.982Z,22.32
2018-04-23T11:26:43.892Z,22.29
2018-04-23T11:27:43.801Z,22.38
2018-04-23T11:28:43.724Z,22.30
2018-04-23T11:29:43.632Z,22.35
2018-04-23T11:30:43.540Z,22.57
2018-04-23T11:31:43.450Z,22.36
2018-04-23T11:32:43.358Z,22.23
2018-04-23T11:33:43.268Z,21.95
2018-04-23T11:34:43.176Z,21.70
2018-04-23T11:35:43.087Z,21.70
2018-04-23T11:36:43.008Z,21.73
2018-04-23T11:37:42.906Z,21.67
2018-04-23T11:38:42.837Z,21.55
2018-04-23T11:39:42.735Z,21.48
2018-04-23T11:40:42.645Z,21.43
2018-04-23T11:41:42.553Z,21.30
2018-04-23T11:42:42.463Z,21.20
2018-04-23T11:43:42.371Z,21.24
2018-04-23T11:44:42.284Z,21.30
2018-04-23T11:45:42.191Z,21.25
2018-04-23T11:46:42.099Z,21.32
2018-04-23T11:47:42.008Z,21.32
2018-04-23T11:48:41.919Z,21.57
2018-04-23T11:49:41.829Z,21.62
2018-04-23T11:50:41.739Z,21.66
2018-04-23T11:51:41.664Z,21.85
2018-04-23T11:52:41.567Z,21.96
2018-04-23T11:53:41.477Z,21.85
2018-04-23T11:54:41.402Z,21.99
2018-04-23T11:55:41.295Z,21.85
2018-04-23T11:56:41.204Z,21.69
2018-04-23T11:57:41.113Z,21.70
2018-04-23T11:58:41.035Z,21.72
2018-04-23T11:59:40.937Z,21.99
2018-04-23T12:00:40.840Z,22.13
2018-04-23T12:01:40.750Z,22.06
2018-04-23T12:02:40.658Z,22.08
2018-04-23T12:03:40.569Z,22.10
2018-04-23T12:04:40.476Z,22.00
2018-04-23T12:05:40.387Z,21.85
2018-04-23T12:06:40.295Z,21.93
2018-04-23T12:07:40.205Z,21.76
2018-04-23T12:08:40.113Z,21.79
2018-04-23T12:09:40.024Z,21.80
2018-04-23T12:10:39.932Z,21.88
2018-04-23T12:11:39.842Z,21.72
2018-04-23T12:12:39.751Z,21.69
2018-04-23T12:13:39.660Z,21.85
2018-04-23T12:14:39.568Z,22.11
2018-04-23T12:15:39.479Z,22.10
2018-04-23T12:16:39.388Z,22.20
2018-04-23T12:17:39.309Z,22.33
2018-04-23T12:18:39.206Z,22.00
2018-04-23T12:19:39.115Z,21.96
2018-04-23T12:20:39.026Z,21.89
2018-04-23T12:21:39.000Z,21.85
2018-04-23T12:22:38.856Z,21.66
2018-04-23T12:23:38.765Z,21.64
2018-04-23T12:24:38.672Z,21.69
2018-04-23T12:25:38.582Z,21.80
2018-04-23T12:26:38.492Z,21.93
2018-04-23T12:27:38.401Z,21.69
2018-04-23T12:28:38.310Z,21.89
2018-04-23T12:29:38.219Z,22.00
2018-04-23T12:30:38.129Z,22.15
2018-04-23T12:31:38.039Z,22.20
2018-04-23T12:32:37.951Z,22.47
2018-04-23T12:33:37.855Z,22.47
2018-04-23T12:34:37.765Z,22.53
2018-04-23T12:35:37.674Z,22.57
2018-04-23T12:36:37.584Z,22.43
2018-04-23T12:37:37.492Z,22.26
2018-04-23T12:38:37.404Z,22.22
2018-04-23T12:39:37.312Z,22.38
2018-04-23T12:40:37.221Z,22.48
2018-04-23T12:41:37.129Z,22.45
2018-04-23T12:42:37.040Z,22.48
2018-04-23T12:43:36.949Z,22.55
2018-04-23T12:44:36.858Z,22.45
2018-04-23T12:45:36.766Z,22.59
2018-04-23T12:46:36.677Z,22.63
2018-04-23T12:47:36.584Z,22.70
2018-04-23T12:48:36.494Z,22.91
2018-04-23T12:49:36.449Z,23.20
2018-04-23T12:50:36.325Z,23.20
2018-04-23T12:51:36.234Z,23.21